PWSweather.com
Personal Weather Stations
Station Observations
DW1039
Liberty & Fairfield Townships, Hamilton, OH 45011

Liberty & Fairfield TownshipsHamilton, OH 45011

Lat: 39.3933, Lon: -84.477

Elevation: 780

Station Type: Davis Vantage Pro2 (Daytime Fan Aspirated)

http://www.lfweathercenter.com/

Latest ConditionsUpdated 3:30:12 AM EST Thursday, Dec 12, 2019
Currently Today's Max Today's Min Today's Average
Temperature 22.0°F-5.6°C 23.1°F-4.9°C 21.8°F-5.7°C 22.3°F-5.4°C
Dew Point 17.6°F-8.0°C 18.2°F-7.7°C 17.2°F-8.2°C 17.6°F-8.0°C
Winds Calm Calm 1.0 mph -1.6 kmh - - 0.2 mph 0.3 kmh
Wind Gusts -- 3.0 mph4.8 kmh - -
Humidity 83% 83% 81% 82%
Pressure 30.61 in1036.6 mb 30.62 in1036.9 mb 30.59 in1035.9 mb -
Hour Temp Dew Point Humidity Winds Wind Gusts Pressure Precip Precip Rate Daily Precip Total
03:30 AM 22.0°F-5.6°C 17.6°F-8.0°C 83% Calm Calm -- 30.61 in1036.6 mb 0.00 in0.0 mm 0.00 in0.0 mm 0.00 in0.0 mm
03:20 AM 21.9°F-5.6°C 17.5°F-8.1°C 83% Calm Calm -- 30.61 in1036.6 mb 0.00 in0.0 mm 0.00 in0.0 mm 0.00 in0.0 mm
03:10 AM 21.8°F-5.7°C 17.2°F-8.2°C 82% Calm Calm -- 30.61 in1036.6 mb 0.00 in0.0 mm 0.00 in0.0 mm 0.00 in0.0 mm
03:00 AM 21.9°F-5.6°C 17.3°F-8.2°C 82% Calm Calm -- 30.61 in1036.6 mb 0.00 in0.0 mm 0.00 in0.0 mm 0.00 in0.0 mm
02:50 AM 22.0°F-5.6°C 17.4°F-8.1°C 82% Calm Calm -- 30.62 in1036.9 mb 0.00 in0.0 mm 0.00 in0.0 mm 0.00 in0.0 mm
02:40 AM 22.1°F-5.5°C 17.5°F-8.1°C 82% Calm Calm -- 30.62 in1036.9 mb 0.00 in0.0 mm 0.00 in0.0 mm 0.00 in0.0 mm
02:30 AM 22.2°F-5.4°C 17.6°F-8.0°C 82% Calm Calm -- 30.61 in1036.6 mb 0.00 in0.0 mm 0.00 in0.0 mm 0.00 in0.0 mm
02:20 AM 21.8°F-5.7°C 17.4°F-8.1°C 83% Calm Calm 1.0 mph1.6 kmh 30.61 in1036.6 mb 0.00 in0.0 mm 0.00 in0.0 mm 0.00 in0.0 mm
02:10 AM 21.9°F-5.6°C 17.5°F-8.1°C 83% 1.0 mph E1.6 kmh E 1.0 mph1.6 kmh 30.61 in1036.6 mb 0.00 in0.0 mm 0.00 in0.0 mm 0.00 in0.0 mm
02:00 AM 21.9°F-5.6°C 17.5°F-8.1°C 83% 1.0 mph E1.6 kmh E 2.0 mph3.2 kmh 30.60 in1036.2 mb 0.00 in0.0 mm 0.00 in0.0 mm 0.00 in0.0 mm
01:50 AM 21.8°F-5.7°C 17.2°F-8.2°C 82% 1.0 mph E1.6 kmh E 1.0 mph1.6 kmh 30.60 in1036.2 mb 0.00 in0.0 mm 0.00 in0.0 mm 0.00 in0.0 mm
01:40 AM 22.0°F-5.6°C 17.4°F-8.1°C 82% 1.0 mph E1.6 kmh E 1.0 mph1.6 kmh 30.60 in1036.2 mb 0.00 in0.0 mm 0.00 in0.0 mm 0.00 in0.0 mm
01:30 AM 22.3°F-5.4°C 17.4°F-8.1°C 81% Calm Calm 1.0 mph1.6 kmh 30.60 in1036.2 mb 0.00 in0.0 mm 0.00 in0.0 mm 0.00 in0.0 mm
01:20 AM 22.4°F-5.3°C 17.5°F-8.1°C 81% Calm Calm 2.0 mph3.2 kmh 30.60 in1036.2 mb 0.00 in0.0 mm 0.00 in0.0 mm 0.00 in0.0 mm
01:10 AM 22.5°F-5.3°C 17.6°F-8.0°C 81% Calm Calm 1.0 mph1.6 kmh 30.60 in1036.2 mb 0.00 in0.0 mm 0.00 in0.0 mm 0.00 in0.0 mm
01:00 AM 22.7°F-5.2°C 17.8°F-7.9°C 81% Calm Calm 2.0 mph3.2 kmh 30.60 in1036.2 mb 0.00 in0.0 mm 0.00 in0.0 mm 0.00 in0.0 mm
12:50 AM 22.8°F-5.1°C 17.9°F-7.8°C 81% Calm Calm 2.0 mph3.2 kmh 30.60 in1036.2 mb 0.00 in0.0 mm 0.00 in0.0 mm 0.00 in0.0 mm
12:40 AM 22.9°F-5.1°C 18.0°F-7.8°C 81% Calm Calm 2.0 mph3.2 kmh 30.59 in1035.9 mb 0.00 in0.0 mm 0.00 in0.0 mm 0.00 in0.0 mm
12:30 AM 23.1°F-4.9°C 18.2°F-7.7°C 81% Calm Calm 3.0 mph4.8 kmh 30.60 in1036.2 mb 0.00 in0.0 mm 0.00 in0.0 mm 0.00 in0.0 mm
12:20 AM 23.0°F-5.0°C 18.1°F-7.7°C 81% Calm Calm 2.0 mph3.2 kmh 30.60 in1036.2 mb 0.00 in0.0 mm 0.00 in0.0 mm 0.00 in0.0 mm
12:10 AM 23.0°F-5.0°C 18.1°F-7.7°C 81% Calm Calm 2.0 mph3.2 kmh 30.60 in1036.2 mb 0.00 in0.0 mm 0.00 in0.0 mm 0.00 in0.0 mm
12:00 AM 23.1°F-4.9°C 18.2°F-7.7°C 81% Calm Calm 2.0 mph3.2 kmh 30.60 in1036.2 mb 0.00 in0.0 mm 0.00 in0.0 mm 0.00 in0.0 mm